Terminal Aerodrome Forecast
Issued by NWS

Home | Current Version | Previous Version | Graphics & Text | Print | Product List | Glossary On
Versions: 1 2 3 4 5 6 7 8 9 10 11 12 13 14 15 16 17 18 19 20 21 22 23 24 25 26 27 28 29 30 31 32 33 34 35 36 37 38 39 40 41 42 43
908
FTUS43 KLOT 271746
TAFGYY
TAF
KGYY 271746Z 2718/2818 26020G28KT P6SM FEW050 SCT250
     FM272100 28015G23KT P6SM SCT040 BKN200
     FM280000 28010KT P6SM VCSH OVC040
     FM280700 29008KT P6SM -SHRA OVC035
     FM281000 30007KT 6SM -SHRA OVC015
     FM281200 31004KT P6SM -SHRA OVC008
     FM281500 32010G16KT P6SM OVC012=

USA.gov is the U.S. government's official web portal to all federal, state and local government web resources and services.